Time;durP1;ratioP1;P1;durP2;ratioP2;P2;SDS_P1;SDS_P2;PMS_P1;PMS_P2;Temp;Humidity;BMP_temperature;BMP_pressure;BME280_temperature;BME280_humidity;BME280_pressure;Samples;Min_cycle;Max_cycle;Signal;HPM_P1;HPM_P2
2021/03/17 00:01:14;;;;;;;27.52;12.82;;;1.90;99.90;;;;;;6242381;23;20074;-62
2021/03/17 00:03:59;;;;;;;25.65;13.10;;;1.90;99.90;;;;;;6239668;23;20340;-62
2021/03/17 00:06:43;;;;;;;28.30;12.88;;;1.90;99.90;;;;;;6241799;23;20400;-62
2021/03/17 00:09:27;;;;;;;25.70;13.25;;;1.90;99.90;;;;;;6239780;23;20108;-62
2021/03/17 00:12:12;;;;;;;26.50;13.43;;;1.90;99.90;;;;;;6239997;23;20020;-62
2021/03/17 00:14:56;;;;;;;27.02;12.73;;;1.90;99.90;;;;;;6239949;23;20074;-62
2021/03/17 00:17:41;;;;;;;29.70;13.27;;;1.90;99.90;;;;;;6239950;23;20020;-62
2021/03/17 00:20:27;;;;;;;24.05;13.38;;;1.80;99.90;;;;;;6239718;23;20441;-62
2021/03/17 00:23:12;;;;;;;33.67;13.63;;;1.80;99.90;;;;;;6244039;23;20024;-62
2021/03/17 00:25:56;;;;;;;30.77;14.95;;;1.80;99.90;;;;;;6239678;23;20543;-62
2021/03/17 00:28:41;;;;;;;25.85;14.48;;;1.80;99.90;;;;;;6243345;23;20034;-62
2021/03/17 00:31:26;;;;;;;28.35;12.15;;;1.80;99.90;;;;;;6239453;23;20746;-62
2021/03/17 00:34:10;;;;;;;24.77;13.07;;;1.80;99.90;;;;;;6242699;23;20024;-62
2021/03/17 00:36:55;;;;;;;26.60;13.15;;;1.90;99.90;;;;;;6239668;23;20078;-63
2021/03/17 00:39:39;;;;;;;33.28;13.95;;;1.90;99.90;;;;;;6217259;23;20031;-62
2021/03/17 00:42:31;;;;;;;27.25;12.68;;;1.90;99.90;;;;;;6220705;23;20031;-62
2021/03/17 00:45:16;;;;;;;25.90;14.75;;;2.00;99.90;;;;;;6243422;23;20476;-62
2021/03/17 00:48:00;;;;;;;28.75;13.30;;;2.00;99.90;;;;;;6241367;23;20047;-62
2021/03/17 00:50:28;;;;;;;23.25;14.38;;;1.90;99.90;;;;;;6216924;23;20020;-62
2021/03/17 00:52:55;;;;;;;24.58;12.68;;;1.90;99.90;;;;;;6241369;23;20058;-62
2021/03/17 00:55:25;;;;;;;29.52;15.07;;;2.00;99.90;;;;;;6218535;23;20480;-62
2021/03/17 00:58:14;;;;;;;30.27;13.30;;;2.00;99.90;;;;;;6240790;23;20050;-63
2021/03/17 01:00:40;;;;;;;27.75;12.98;;;2.10;99.90;;;;;;6214741;23;20024;-62
2021/03/17 01:03:06;;;;;;;33.38;13.82;;;2.10;99.90;;;;;;6244355;23;20020;-62
2021/03/17 01:05:32;;;;;;;31.75;14.02;;;2.20;99.90;;;;;;6241390;23;20048;-62
2021/03/17 01:07:59;;;;;;;28.38;13.98;;;2.20;99.90;;;;;;6241457;23;20024;-62
2021/03/17 01:10:38;;;;;;;30.00;14.23;;;2.20;99.90;;;;;;6244863;23;20020;-62
2021/03/17 01:13:05;;;;;;;28.92;14.57;;;2.20;99.90;;;;;;6241330;23;20489;-62
2021/03/17 01:15:32;;;;;;;30.77;15.02;;;2.20;99.90;;;;;;6241404;23;20062;-62
2021/03/17 01:17:58;;;;;;;25.95;13.52;;;2.20;99.90;;;;;;6241325;23;20094;-62
2021/03/17 01:20:26;;;;;;;27.40;14.38;;;2.30;99.90;;;;;;6216355;23;20554;-62
2021/03/17 01:22:56;;;;;;;31.38;13.93;;;2.30;99.90;;;;;;6241304;23;20586;-62
2021/03/17 01:25:42;;;;;;;30.83;14.10;;;2.30;99.90;;;;;;6245185;23;20047;-62
2021/03/17 01:28:10;;;;;;;28.48;14.48;;;2.30;99.90;;;;;;6241134;23;20044;-62
2021/03/17 01:30:48;;;;;;;29.42;14.57;;;2.30;99.90;;;;;;6241121;23;20035;-62
2021/03/17 01:33:16;;;;;;;29.00;13.82;;;2.30;99.90;;;;;;6241223;23;20333;-62
2021/03/17 01:35:44;;;;;;;28.98;13.65;;;2.30;99.90;;;;;;6214169;23;20361;-62
2021/03/17 01:38:10;;;;;;;26.10;13.02;;;2.30;99.90;;;;;;6241239;23;20020;-62
2021/03/17 01:40:39;;;;;;;27.77;13.82;;;2.30;99.90;;;;;;6243589;23;20016;-62
2021/03/17 01:43:06;;;;;;;26.08;13.02;;;2.30;99.90;;;;;;6241158;23;20059;-62
2021/03/17 01:45:32;;;;;;;27.75;13.77;;;2.30;99.90;;;;;;6241094;23;20038;-62
2021/03/17 01:47:58;;;;;;;31.15;13.85;;;2.30;99.90;;;;;;6214172;23;20051;-62
2021/03/17 01:50:27;;;;;;;28.52;14.18;;;2.30;99.90;;;;;;6242502;23;20024;-62
2021/03/17 01:52:55;;;;;;;31.35;13.90;;;2.20;99.90;;;;;;6240360;23;20054;-62
2021/03/17 01:55:23;;;;;;;28.98;14.40;;;2.20;99.90;;;;;;6244546;23;20031;-62
2021/03/17 01:57:49;;;;;;;29.80;15.32;;;2.20;99.90;;;;;;6240894;23;20048;-62
2021/03/17 02:00:18;;;;;;;27.08;14.07;;;2.20;99.90;;;;;;6241224;23;20033;-62
2021/03/17 02:02:54;;;;;;;24.13;14.30;;;2.20;99.90;;;;;;6240870;23;20058;-62
2021/03/17 02:05:32;;;;;;;35.15;15.38;;;2.10;99.90;;;;;;6240826;23;20020;-62
2021/03/17 02:08:05;;;;;;;24.60;14.25;;;2.10;99.90;;;;;;6240991;23;20039;-62
2021/03/17 02:10:32;;;;;;;28.52;15.98;;;2.00;99.90;;;;;;6243327;23;20027;-62
2021/03/17 02:13:04;;;;;;;25.90;14.55;;;2.00;99.90;;;;;;6240493;23;20040;-62
2021/03/17 02:16:07;;;;;;;27.08;13.23;;;2.00;99.90;;;;;;6240488;23;20103;-62
2021/03/17 02:18:38;;;;;;;33.42;15.25;;;1.90;99.90;;;;;;6240226;23;20461;-62
2021/03/17 02:21:10;;;;;;;30.38;15.23;;;1.90;99.90;;;;;;6244467;23;20027;-62
2021/03/17 02:24:08;;;;;;;30.52;15.90;;;1.80;99.90;;;;;;6213635;23;20161;-62
2021/03/17 02:27:19;;;;;;;30.02;14.63;;;1.90;99.90;;;;;;6240544;23;20047;-62
2021/03/17 02:29:46;;;;;;;25.02;14.70;;;1.80;99.90;;;;;;6243631;23;20523;-62
2021/03/17 02:32:37;;;;;;;29.45;14.38;;;1.80;99.90;;;;;;6213839;23;20047;-62
2021/03/17 02:35:08;;;;;;;29.33;15.50;;;1.70;99.90;;;;;;6242071;23;20095;-62
2021/03/17 02:37:44;;;;;;;27.55;14.50;;;1.70;99.90;;;;;;6214282;23;20477;-62
2021/03/17 02:40:10;;;;;;;27.63;14.60;;;1.70;99.90;;;;;;6240630;23;20107;-62
2021/03/17 02:42:37;;;;;;;32.45;15.77;;;1.70;99.90;;;;;;6217237;23;20020;-62
2021/03/17 02:45:08;;;;;;;28.27;15.13;;;1.70;99.90;;;;;;6242499;23;20061;-62
2021/03/17 02:47:43;;;;;;;28.35;14.50;;;1.70;99.90;;;;;;6214012;23;20102;-63
2021/03/17 02:50:12;;;;;;;28.00;15.23;;;1.70;99.90;;;;;;6213263;23;20028;-62
2021/03/17 02:52:43;;;;;;;28.05;15.57;;;1.70;99.90;;;;;;6240192;23;20020;-62
2021/03/17 02:55:13;;;;;;;27.50;14.90;;;1.60;99.90;;;;;;6238427;23;20024;-62
2021/03/17 02:57:41;;;;;;;30.45;15.18;;;1.70;99.90;;;;;;6242898;23;20020;-62
2021/03/17 03:00:12;;;;;;;28.80;15.10;;;1.70;99.90;;;;;;6213129;23;20020;-62
2021/03/17 03:02:41;;;;;;;29.63;15.10;;;1.60;99.90;;;;;;6213139;23;20024;-62
2021/03/17 03:05:09;;;;;;;26.40;13.98;;;1.70;99.90;;;;;;6213329;23;20531;-62
2021/03/17 03:07:36;;;;;;;25.80;14.38;;;1.70;99.90;;;;;;6240241;23;20020;-62
2021/03/17 03:10:06;;;;;;;30.58;16.17;;;1.70;99.90;;;;;;6240013;23;20066;-62
2021/03/17 03:12:33;;;;;;;30.50;14.95;;;1.70;99.90;;;;;;6243774;23;20019;-62
2021/03/17 03:14:59;;;;;;;25.10;14.80;;;1.70;99.90;;;;;;6239983;23;20047;-62
2021/03/17 03:17:27;;;;;;;30.90;15.45;;;1.60;99.90;;;;;;6241157;23;20744;-62
2021/03/17 03:19:55;;;;;;;32.60;15.40;;;1.60;99.90;;;;;;6240209;23;20052;-62
2021/03/17 03:22:24;;;;;;;30.63;14.90;;;1.60;99.90;;;;;;6242801;23;20019;-62
2021/03/17 03:24:53;;;;;;;28.75;15.60;;;1.60;99.90;;;;;;6213186;23;20470;-62
2021/03/17 03:27:19;;;;;;;29.48;15.35;;;1.50;99.90;;;;;;6213302;23;20032;-62
2021/03/17 03:29:46;;;;;;;30.50;14.95;;;1.50;99.90;;;;;;6239714;23;20095;-62
2021/03/17 03:32:12;;;;;;;30.88;16.23;;;1.50;99.90;;;;;;6240073;23;20020;-62
2021/03/17 03:34:39;;;;;;;28.30;15.13;;;1.50;99.90;;;;;;6239328;23;20043;-62
2021/03/17 03:37:06;;;;;;;30.55;16.27;;;1.40;99.90;;;;;;6243714;23;20369;-62
2021/03/17 03:39:34;;;;;;;28.95;15.55;;;1.40;99.90;;;;;;6239698;23;20511;-62
2021/03/17 03:42:00;;;;;;;27.58;14.70;;;1.40;99.90;;;;;;6239951;23;20024;-62
2021/03/17 03:44:27;;;;;;;33.90;15.80;;;1.30;99.90;;;;;;6239674;23;20043;-62
2021/03/17 03:46:54;;;;;;;28.55;15.63;;;1.30;99.90;;;;;;6239512;23;20020;-62
2021/03/17 03:49:20;;;;;;;27.95;15.50;;;1.20;99.90;;;;;;6239460;23;20016;-62
2021/03/17 03:51:59;;;;;;;38.10;16.50;;;1.20;99.90;;;;;;6239097;23;20031;-62
2021/03/17 03:54:35;;;;;;;32.50;16.23;;;1.20;99.90;;;;;;6239993;23;20079;-62
2021/03/17 03:57:12;;;;;;;28.55;14.82;;;1.20;99.90;;;;;;6240702;23;20065;-62
2021/03/17 03:59:43;;;;;;;27.23;15.60;;;1.10;99.90;;;;;;6239726;23;20040;-62
2021/03/17 04:02:13;;;;;;;31.48;15.98;;;1.10;99.90;;;;;;6241092;23;20027;-63
2021/03/17 04:04:45;;;;;;;31.38;16.60;;;1.00;99.90;;;;;;6239381;23;20085;-62
2021/03/17 04:07:12;;;;;;;32.27;15.90;;;1.00;99.90;;;;;;6240000;23;20024;-62
2021/03/17 04:09:47;;;;;;;29.95;15.18;;;0.90;99.90;;;;;;6239632;23;20294;-62
2021/03/17 04:12:15;;;;;;;31.33;15.50;;;0.90;99.90;;;;;;6243759;23;20031;-62
2021/03/17 04:14:46;;;;;;;29.92;15.27;;;0.80;99.90;;;;;;6213125;23;20020;-62
2021/03/17 04:17:15;;;;;;;28.80;15.07;;;0.80;99.90;;;;;;6243042;23;20027;-62
2021/03/17 04:19:46;;;;;;;30.17;15.73;;;0.80;99.90;;;;;;6241828;23;20097;-62
2021/03/17 04:22:14;;;;;;;27.60;14.73;;;0.70;99.90;;;;;;6217400;23;20058;-62
2021/03/17 04:24:42;;;;;;;27.70;14.75;;;0.80;99.90;;;;;;6214981;23;20094;-62
2021/03/17 04:27:11;;;;;;;32.42;15.05;;;0.80;99.90;;;;;;6241889;23;20020;-62
2021/03/17 04:29:40;;;;;;;35.53;14.85;;;0.70;99.90;;;;;;6241755;23;20044;-62
2021/03/17 04:32:08;;;;;;;28.85;16.35;;;0.70;99.90;;;;;;6241698;23;20024;-62
2021/03/17 04:34:35;;;;;;;29.40;15.88;;;0.70;99.90;;;;;;6241787;23;20126;-62
2021/03/17 04:37:02;;;;;;;35.35;16.05;;;0.60;99.90;;;;;;6245117;23;20031;-62
2021/03/17 04:39:28;;;;;;;28.10;14.88;;;0.60;99.90;;;;;;6241464;23;20481;-62
2021/03/17 04:41:56;;;;;;;31.20;15.57;;;0.60;99.90;;;;;;6241734;23;20044;-62
2021/03/17 04:44:23;;;;;;;30.65;16.17;;;0.60;99.90;;;;;;6241408;23;20040;-62
2021/03/17 04:46:50;;;;;;;25.25;14.70;;;0.60;99.90;;;;;;6243602;23;20469;-62
2021/03/17 04:49:19;;;;;;;27.23;15.95;;;0.60;99.90;;;;;;6241191;23;20050;-63
2021/03/17 04:51:47;;;;;;;30.02;14.93;;;0.50;99.90;;;;;;6245419;23;20016;-62
2021/03/17 04:54:14;;;;;;;30.23;15.45;;;0.60;99.90;;;;;;6241299;23;20020;-62
2021/03/17 04:56:43;;;;;;;32.05;15.43;;;0.60;99.90;;;;;;6241782;23;20028;-62
2021/03/17 04:59:15;;;;;;;28.05;15.52;;;0.60;99.90;;;;;;6241393;23;20484;-62
2021/03/17 05:01:43;;;;;;;32.60;15.63;;;0.70;99.90;;;;;;6241261;23;20354;-62
2021/03/17 05:04:11;;;;;;;26.25;15.43;;;0.70;99.90;;;;;;6241526;23;20028;-62
2021/03/17 05:06:39;;;;;;;28.77;14.65;;;0.80;99.90;;;;;;6241640;23;20020;-62
2021/03/17 05:09:08;;;;;;;31.38;16.23;;;0.80;99.90;;;;;;6241209;23;20136;-62
2021/03/17 05:11:37;;;;;;;28.98;16.23;;;0.90;99.90;;;;;;6241712;23;20723;-62
2021/03/17 05:14:04;;;;;;;31.48;14.77;;;1.00;99.90;;;;;;6241302;23;20020;-62
2021/03/17 05:16:31;;;;;;;28.27;15.23;;;1.10;99.90;;;;;;6244754;23;20478;-62
2021/03/17 05:18:59;;;;;;;29.00;14.77;;;1.10;99.90;;;;;;6214719;23;20042;-62
2021/03/17 05:21:27;;;;;;;28.63;15.73;;;1.20;99.90;;;;;;6241105;23;20024;-62
2021/03/17 05:23:55;;;;;;;28.58;14.93;;;1.30;99.90;;;;;;6240869;23;20083;-62
2021/03/17 05:26:23;;;;;;;27.90;15.60;;;1.50;99.90;;;;;;6241019;23;20020;-62
2021/03/17 05:28:51;;;;;;;28.13;16.05;;;1.50;99.90;;;;;;6241146;23;20046;-62
2021/03/17 05:31:18;;;;;;;25.83;14.13;;;1.60;99.90;;;;;;6244970;23;20020;-62
2021/03/17 05:33:45;;;;;;;28.58;14.77;;;1.70;99.90;;;;;;6241000;23;20110;-62
2021/03/17 05:36:11;;;;;;;26.90;15.13;;;1.90;99.90;;;;;;6241075;23;20047;-62
2021/03/17 05:38:38;;;;;;;26.48;13.85;;;2.10;99.90;;;;;;6241001;23;20090;-62
2021/03/17 05:41:04;;;;;;;29.52;14.60;;;2.20;99.90;;;;;;6244419;23;20024;-62
2021/03/17 05:43:31;;;;;;;26.80;15.77;;;2.30;99.90;;;;;;6238449;23;20555;-62
2021/03/17 05:45:57;;;;;;;30.27;15.73;;;2.50;99.90;;;;;;6239636;23;20019;-63
2021/03/17 05:48:25;;;;;;;31.92;14.75;;;2.50;99.90;;;;;;6241037;23;20043;-63
2021/03/17 05:50:52;;;;;;;26.92;14.50;;;2.80;99.90;;;;;;6242944;23;20023;-63
2021/03/17 05:53:18;;;;;;;28.55;14.02;;;3.10;99.90;;;;;;6240928;23;20017;-63
2021/03/17 05:55:44;;;;;;;32.55;14.40;;;3.30;99.90;;;;;;6240850;23;20039;-63
2021/03/17 05:58:12;;;;;;;26.65;14.43;;;3.60;99.90;;;;;;6240555;23;20036;-63
2021/03/17 06:00:38;;;;;;;35.45;13.68;;;3.80;99.90;;;;;;6240542;23;20090;-62
2021/03/17 06:03:05;;;;;;;23.65;14.00;;;4.10;99.90;;;;;;6240976;23;20020;-62
2021/03/17 06:05:31;;;;;;;26.45;14.02;;;4.40;99.90;;;;;;6214233;23;20019;-63
2021/03/17 06:08:04;;;;;;;24.52;12.80;;;4.60;99.90;;;;;;6240562;23;20047;-63
2021/03/17 06:10:32;;;;;;;26.60;14.20;;;4.60;99.90;;;;;;6216677;23;20430;-62
2021/03/17 06:13:02;;;;;;;22.23;14.40;;;4.40;99.90;;;;;;6240703;23;20055;-64
2021/03/17 06:15:29;;;;;;;25.77;13.63;;;4.20;99.90;;;;;;6240836;23;20101;-63
2021/03/17 06:18:01;;;;;;;28.40;13.90;;;4.00;99.90;;;;;;6240273;23;20032;-64
2021/03/17 06:20:27;;;;;;;23.75;13.05;;;3.80;99.90;;;;;;6241027;23;20020;-63
2021/03/17 06:22:54;;;;;;;23.15;13.48;;;3.70;99.90;;;;;;6240182;23;20144;-64
2021/03/17 06:25:20;;;;;;;23.58;13.27;;;3.60;99.90;;;;;;6240478;23;20078;-66
2021/03/17 06:27:47;;;;;;;23.63;14.23;;;3.60;99.90;;;;;;6213373;23;20043;-67
2021/03/17 06:30:13;;;;;;;21.02;13.90;;;3.50;99.90;;;;;;6217039;23;20023;-67
2021/03/17 06:32:40;;;;;;;24.17;14.00;;;3.50;99.90;;;;;;6240230;23;20028;-65
2021/03/17 06:35:21;;;;;;;23.90;14.18;;;3.60;99.90;;;;;;6240737;23;20039;-66
2021/03/17 06:37:48;;;;;;;25.27;13.48;;;3.60;99.90;;;;;;6239813;23;20040;-65
2021/03/17 06:40:22;;;;;;;24.02;13.10;;;3.60;99.90;;;;;;6239967;23;20024;-66
2021/03/17 06:42:49;;;;;;;25.27;13.77;;;3.40;99.90;;;;;;6239974;23;20020;-67
2021/03/17 06:45:15;;;;;;;24.98;13.63;;;3.30;99.90;;;;;;6242191;23;20366;-65
2021/03/17 06:47:41;;;;;;;24.90;13.43;;;3.30;99.90;;;;;;6239745;23;20027;-63
2021/03/17 06:50:12;;;;;;;25.02;13.88;;;3.30;99.90;;;;;;6242089;23;20016;-69
2021/03/17 06:52:40;;;;;;;27.98;13.93;;;3.30;99.90;;;;;;6240199;23;20078;-69
2021/03/17 06:55:22;;;;;;;27.08;13.90;;;3.20;99.90;;;;;;6240203;23;20119;-69
2021/03/17 06:57:50;;;;;;;20.90;12.73;;;3.30;99.90;;;;;;6239941;23;20043;-69
2021/03/17 07:00:35;;;;;;;22.77;14.10;;;3.30;99.90;;;;;;6240144;23;20476;-67
2021/03/17 07:03:14;;;;;;;23.95;14.65;;;3.30;99.90;;;;;;6240185;23;20090;-68
2021/03/17 07:05:45;;;;;;;26.77;13.70;;;3.30;99.90;;;;;;6213623;23;20020;-67
2021/03/17 07:08:13;;;;;;;23.10;12.88;;;3.40;99.90;;;;;;6239718;23;20016;-69
2021/03/17 07:10:43;;;;;;;19.70;12.95;;;3.50;99.90;;;;;;6239549;23;20028;-69
2021/03/17 07:13:12;;;;;;;25.40;13.60;;;3.50;99.90;;;;;;6243504;23;20026;-69
2021/03/17 07:15:39;;;;;;;20.63;12.30;;;3.60;99.90;;;;;;6239981;23;20153;-63
2021/03/17 07:18:24;;;;;;;23.38;13.07;;;3.70;99.90;;;;;;6239922;23;20035;-64
2021/03/17 07:20:58;;;;;;;21.27;12.43;;;3.70;99.90;;;;;;6240184;23;20012;-63
2021/03/17 07:23:34;;;;;;;19.30;13.23;;;3.70;99.90;;;;;;6212902;23;20020;-63
2021/03/17 07:26:19;;;;;;;26.70;13.60;;;3.70;99.90;;;;;;6212951;23;20091;-62
2021/03/17 07:28:48;;;;;;;19.02;12.52;;;3.90;99.90;;;;;;6243712;23;20122;-64
2021/03/17 07:31:26;;;;;;;21.63;13.40;;;3.80;99.90;;;;;;6239749;23;20052;-63
2021/03/17 07:33:53;;;;;;;26.30;13.02;;;3.90;99.90;;;;;;6244319;23;20335;-64
2021/03/17 07:36:37;;;;;;;28.15;13.18;;;3.90;99.90;;;;;;6239669;23;20020;-64
2021/03/17 07:39:31;;;;;;;21.83;12.95;;;3.90;99.90;;;;;;6239820;23;20027;-64
2021/03/17 07:41:59;;;;;;;22.85;13.05;;;3.90;99.90;;;;;;6239050;23;20106;-63
2021/03/17 07:44:28;;;;;;;21.98;12.52;;;3.80;99.90;;;;;;6241857;23;20051;-77
2021/03/17 07:46:59;;;;;;;21.33;12.88;;;3.70;99.90;;;;;;6211723;23;20031;-62
2021/03/17 07:49:27;;;;;;;23.10;11.82;;;3.80;99.90;;;;;;6238987;23;20346;-62
2021/03/17 07:51:56;;;;;;;19.45;12.30;;;3.80;99.90;;;;;;6239754;23;20055;-62
2021/03/17 07:54:34;;;;;;;19.67;11.23;;;3.80;99.90;;;;;;6212130;23;20465;-62
2021/03/17 07:57:06;;;;;;;21.42;12.05;;;3.70;99.90;;;;;;6239760;23;20051;-62
2021/03/17 07:59:34;;;;;;;20.35;12.82;;;3.70;99.90;;;;;;6241885;23;20024;-62
2021/03/17 08:02:00;;;;;;;30.40;12.98;;;3.70;99.90;;;;;;6238010;23;20453;-69
2021/03/17 08:04:29;;;;;;;26.05;12.88;;;3.70;99.90;;;;;;6239114;23;20024;-63
2021/03/17 08:06:57;;;;;;;21.48;12.02;;;3.80;99.90;;;;;;6239781;23;20054;-63
2021/03/17 08:09:23;;;;;;;20.58;11.77;;;3.80;99.90;;;;;;6239238;23;20027;-63
2021/03/17 08:11:51;;;;;;;34.75;11.95;;;3.80;99.90;;;;;;6212755;23;20051;-63
2021/03/17 08:14:18;;;;;;;16.08;10.68;;;3.80;99.90;;;;;;6239514;23;20071;-64
2021/03/17 08:16:44;;;;;;;18.73;11.43;;;3.60;99.90;;;;;;6239480;23;20070;-62
2021/03/17 08:19:23;;;;;;;22.30;11.40;;;3.50;99.90;;;;;;6243074;23;20070;-62
2021/03/17 08:21:52;;;;;;;22.30;11.75;;;3.40;99.90;;;;;;6237962;23;20059;-80
2021/03/17 08:24:35;;;;;;;19.08;10.98;;;3.40;99.90;;;;;;6212466;23;20030;-70
2021/03/17 08:27:09;;;;;;;18.98;9.95;;;3.40;99.90;;;;;;6239614;23;20098;-71
2021/03/17 08:29:40;;;;;;;18.13;10.70;;;3.20;99.90;;;;;;6243241;23;20112;-70
2021/03/17 08:32:08;;;;;;;22.75;10.93;;;3.10;99.90;;;;;;6239479;23;20074;-70
2021/03/17 08:34:35;;;;;;;22.23;10.48;;;3.10;99.90;;;;;;6238803;23;20131;-74
2021/03/17 08:37:04;;;;;;;18.55;10.82;;;3.00;99.90;;;;;;6238098;23;20054;-71
2021/03/17 08:39:30;;;;;;;13.80;9.70;;;3.00;99.90;;;;;;6238956;23;20473;-72
2021/03/17 08:42:00;;;;;;;18.30;10.00;;;3.00;99.90;;;;;;6238423;23;20047;-70
2021/03/17 08:44:32;;;;;;;16.08;10.10;;;3.00;99.90;;;;;;6238229;23;20020;-72
2021/03/17 08:47:12;;;;;;;15.63;9.35;;;3.00;99.90;;;;;;6240045;23;20059;-72
2021/03/17 08:49:38;;;;;;;18.05;10.07;;;3.20;99.90;;;;;;6238346;23;20046;-72
2021/03/17 08:52:12;;;;;;;17.73;9.43;;;3.30;99.90;;;;;;6215246;23;20016;-71
2021/03/17 08:54:41;;;;;;;15.90;9.20;;;3.30;99.90;;;;;;6212827;23;20070;-70
2021/03/17 08:57:09;;;;;;;20.23;10.13;;;3.30;99.90;;;;;;6242669;23;20843;-74
2021/03/17 08:59:41;;;;;;;23.30;10.05;;;3.20;99.90;;;;;;6212627;23;20059;-68
2021/03/17 09:02:25;;;;;;;15.70;9.33;;;3.10;99.90;;;;;;6217961;23;20020;-68
2021/03/17 09:05:04;;;;;;;20.55;10.40;;;3.10;99.90;;;;;;6241318;23;20147;-68
2021/03/17 09:07:32;;;;;;;17.70;10.30;;;3.20;99.90;;;;;;6244845;23;20024;-68
2021/03/17 09:10:05;;;;;;;16.30;9.38;;;3.30;99.90;;;;;;6241096;23;20099;-67
2021/03/17 09:12:32;;;;;;;15.90;9.50;;;3.50;99.90;;;;;;6241707;23;20024;-67
2021/03/17 09:15:13;;;;;;;14.38;9.02;;;3.60;99.90;;;;;;6241128;23;20078;-66
2021/03/17 09:17:56;;;;;;;21.20;11.00;;;3.50;99.90;;;;;;6241662;23;20051;-65
2021/03/17 09:20:43;;;;;;;18.92;9.65;;;3.50;99.90;;;;;;6240848;23;20051;-65
2021/03/17 09:23:19;;;;;;;17.85;9.45;;;3.30;99.90;;;;;;6245000;23;20027;-65
2021/03/17 09:25:48;;;;;;;15.98;9.75;;;3.20;99.90;;;;;;6241293;23;20051;-77
2021/03/17 09:28:29;;;;;;;20.45;10.15;;;3.10;99.90;;;;;;6214167;23;20016;-74
2021/03/17 09:31:01;;;;;;;20.92;9.50;;;3.20;99.90;;;;;;6189269;23;20047;-75
2021/03/17 09:33:29;;;;;;;13.98;8.85;;;3.30;99.90;;;;;;6241386;23;20027;-68
2021/03/17 09:36:00;;;;;;;19.52;9.40;;;3.30;99.90;;;;;;6214240;23;20044;-73
2021/03/17 09:38:32;;;;;;;14.05;9.85;;;3.20;99.90;;;;;;6214623;23;20357;-73
2021/03/17 09:41:19;;;;;;;17.08;9.57;;;3.30;99.90;;;;;;6241335;23;20023;-77
2021/03/17 09:43:49;;;;;;;19.77;8.85;;;3.40;99.90;;;;;;6214259;23;20573;-77
2021/03/17 09:46:21;;;;;;;18.55;10.18;;;3.30;99.90;;;;;;6214402;23;20054;-76
2021/03/17 09:48:49;;;;;;;18.52;9.45;;;3.40;99.90;;;;;;6241142;23;20024;-76
2021/03/17 09:51:21;;;;;;;13.48;8.77;;;3.50;99.90;;;;;;6240808;23;20048;-71
2021/03/17 09:53:48;;;;;;;14.90;9.15;;;3.40;99.90;;;;;;6243183;23;20465;-63
2021/03/17 09:56:14;;;;;;;16.90;10.30;;;3.30;99.90;;;;;;6240766;23;20047;-63
2021/03/17 09:58:41;;;;;;;13.30;9.65;;;3.40;99.90;;;;;;6240781;23;20031;-63
2021/03/17 10:01:16;;;;;;;20.65;9.82;;;3.50;99.90;;;;;;6240518;23;20020;-64
2021/03/17 10:03:46;;;;;;;20.30;10.35;;;3.40;99.90;;;;;;6240763;23;20077;-64
2021/03/17 10:06:14;;;;;;;20.05;9.15;;;3.40;99.90;;;;;;6240765;23;20039;-63
2021/03/17 10:08:41;;;;;;;44.97;11.02;;;3.50;99.90;;;;;;6240816;23;20028;-65
2021/03/17 10:11:14;;;;;;;18.40;9.68;;;3.50;99.90;;;;;;6240303;23;20463;-66
2021/03/17 10:13:40;;;;;;;13.90;9.77;;;3.50;99.90;;;;;;6216929;23;20024;-64
2021/03/17 10:16:09;;;;;;;15.77;9.77;;;3.70;99.90;;;;;;6240615;23;20383;-62
2021/03/17 10:18:35;;;;;;;18.90;10.00;;;3.70;99.90;;;;;;6240310;23;20023;-62
2021/03/17 10:21:01;;;;;;;20.13;9.48;;;3.70;99.90;;;;;;6214320;23;20087;-67
2021/03/17 10:23:27;;;;;;;19.25;10.23;;;3.60;99.90;;;;;;6241210;23;20020;-62
2021/03/17 10:25:53;;;;;;;17.25;10.52;;;3.60;99.90;;;;;;6240287;23;20058;-62
2021/03/17 10:28:20;;;;;;;16.45;9.55;;;3.80;99.90;;;;;;6244482;23;20407;-62
2021/03/17 10:30:49;;;;;;;14.27;9.35;;;3.70;99.90;;;;;;6240206;23;20055;-62
2021/03/17 10:33:19;;;;;;;17.35;10.02;;;3.70;99.90;;;;;;6240580;23;20027;-62
2021/03/17 10:35:47;;;;;;;13.73;9.82;;;3.70;99.90;;;;;;6240493;23;20044;-62
2021/03/17 10:38:13;;;;;;;22.30;9.60;;;3.60;99.90;;;;;;6242344;23;20024;-62
2021/03/17 10:40:40;;;;;;;20.95;10.60;;;3.60;99.90;;;;;;6213193;23;20106;-62
2021/03/17 10:43:14;;;;;;;17.17;10.48;;;3.60;99.90;;;;;;6244058;23;20023;-61
2021/03/17 10:45:47;;;;;;;24.05;11.32;;;3.50;99.90;;;;;;6240139;23;20027;-61
2021/03/17 10:48:18;;;;;;;22.05;10.02;;;3.40;99.90;;;;;;6217851;23;20024;-61
2021/03/17 10:50:45;;;;;;;24.10;9.60;;;3.40;99.90;;;;;;6240122;23;20016;-60
2021/03/17 10:53:22;;;;;;;28.15;10.40;;;3.50;99.90;;;;;;6240415;23;20027;-60
2021/03/17 10:55:49;;;;;;;21.08;9.38;;;3.40;99.90;;;;;;6239625;23;20048;-63
2021/03/17 10:58:29;;;;;;;17.45;10.93;;;3.40;99.90;;;;;;6213722;23;20016;-60
2021/03/17 11:00:59;;;;;;;16.75;9.77;;;3.50;99.90;;;;;;6238800;23;20020;-62
2021/03/17 11:03:29;;;;;;;27.33;10.73;;;3.60;99.90;;;;;;6241968;23;20066;-62
2021/03/17 11:06:17;;;;;;;17.70;10.20;;;3.60;99.90;;;;;;6240049;23;20087;-62
2021/03/17 11:08:45;;;;;;;15.30;9.70;;;3.60;99.90;;;;;;6214989;23;20031;-62
2021/03/17 11:11:13;;;;;;;20.52;10.27;;;3.60;99.90;;;;;;6212957;23;20087;-63
2021/03/17 11:13:46;;;;;;;16.20;10.00;;;3.70;99.90;;;;;;6216255;23;20020;-63
2021/03/17 11:16:36;;;;;;;19.10;10.77;;;3.70;99.90;;;;;;6239792;23;20020;-63
2021/03/17 11:19:11;;;;;;;20.17;10.20;;;3.70;99.90;;;;;;6241094;23;20020;-64
2021/03/17 11:21:40;;;;;;;16.30;9.77;;;3.80;99.90;;;;;;6239764;23;20096;-63
2021/03/17 11:24:16;;;;;;;22.75;10.93;;;3.80;99.90;;;;;;6216336;23;20058;-62
2021/03/17 11:26:42;;;;;;;16.50;9.23;;;3.80;99.90;;;;;;6239778;23;20028;-61
2021/03/17 11:29:30;;;;;;;13.88;9.23;;;3.90;99.90;;;;;;6213274;23;20019;-62
2021/03/17 11:32:06;;;;;;;14.68;9.38;;;3.90;99.90;;;;;;6239560;23;20052;-62
2021/03/17 11:34:32;;;;;;;20.95;9.52;;;3.90;99.90;;;;;;6243685;23;20024;-63
2021/03/17 11:36:58;;;;;;;15.77;10.55;;;4.00;99.90;;;;;;6239786;23;20761;-60
2021/03/17 11:39:24;;;;;;;16.25;9.35;;;4.00;99.90;;;;;;6238203;23;20473;-62
2021/03/17 11:41:50;;;;;;;21.33;11.02;;;4.00;99.90;;;;;;6239498;23;20484;-61
2021/03/17 11:44:19;;;;;;;19.27;9.75;;;3.90;99.90;;;;;;6213469;23;20519;-61
2021/03/17 11:46:45;;;;;;;20.20;10.43;;;4.00;99.90;;;;;;6239418;23;20504;-62
2021/03/17 11:49:12;;;;;;;17.85;10.48;;;4.10;99.90;;;;;;6243173;23;20077;-62
2021/03/17 11:51:39;;;;;;;17.08;10.70;;;4.00;99.90;;;;;;6239438;23;20097;-62
2021/03/17 11:54:05;;;;;;;17.75;10.50;;;4.00;99.90;;;;;;6213224;23;20461;-62
2021/03/17 11:56:31;;;;;;;19.02;10.13;;;4.00;99.90;;;;;;6240077;23;20074;-64
2021/03/17 11:58:59;;;;;;;19.13;11.13;;;4.10;99.90;;;;;;6215369;23;20030;-66
2021/03/17 12:01:25;;;;;;;20.77;10.95;;;4.00;99.90;;;;;;6239371;23;20024;-64
2021/03/17 12:03:51;;;;;;;27.88;10.25;;;4.00;99.90;;;;;;6215401;23;20047;-65
2021/03/17 12:06:17;;;;;;;19.98;11.50;;;4.10;99.90;;;;;;6212982;23;20470;-64
2021/03/17 12:08:44;;;;;;;18.92;11.40;;;4.20;99.90;;;;;;6238092;23;20024;-67
2021/03/17 12:11:10;;;;;;;16.65;9.48;;;4.30;99.90;;;;;;6239692;23;20547;-68
2021/03/17 12:13:36;;;;;;;18.67;9.63;;;4.30;99.90;;;;;;6215675;23;20051;-68
2021/03/17 12:16:02;;;;;;;18.55;11.18;;;4.40;99.90;;;;;;6239809;23;20537;-64
2021/03/17 12:18:30;;;;;;;18.73;10.40;;;4.40;99.90;;;;;;6238972;23;20082;-60
2021/03/17 12:20:56;;;;;;;23.65;10.45;;;4.40;99.90;;;;;;6239703;23;20063;-61
2021/03/17 12:23:22;;;;;;;27.85;10.75;;;4.40;99.90;;;;;;6239759;23;20031;-61
2021/03/17 12:25:48;;;;;;;25.48;9.95;;;4.50;99.90;;;;;;6239785;23;20058;-61
2021/03/17 12:28:15;;;;;;;18.40;11.20;;;4.50;99.90;;;;;;6215409;23;20048;-61
2021/03/17 12:30:42;;;;;;;17.95;10.45;;;4.70;99.90;;;;;;6239432;23;20087;-62
2021/03/17 12:33:09;;;;;;;20.42;10.23;;;4.80;99.90;;;;;;6239320;23;20107;-62
2021/03/17 12:35:35;;;;;;;24.27;9.82;;;4.90;99.90;;;;;;6239773;23;20043;-63
2021/03/17 12:38:02;;;;;;;17.80;9.73;;;4.80;99.90;;;;;;6241732;23;20055;-60
2021/03/17 12:40:29;;;;;;;22.52;10.18;;;4.70;99.90;;;;;;6214676;23;20983;-60
2021/03/17 12:42:57;;;;;;;20.60;9.75;;;4.80;99.90;;;;;;6214593;23;20477;-60
2021/03/17 12:45:26;;;;;;;20.52;9.85;;;4.90;99.90;;;;;;6241499;23;20127;-60
2021/03/17 12:47:53;;;;;;;19.52;9.25;;;5.20;99.30;;;;;;6240965;23;20024;-60
2021/03/17 12:50:22;;;;;;;11.95;9.00;;;5.30;98.10;;;;;;6241301;23;20461;-60
2021/03/17 12:52:48;;;;;;;16.20;8.82;;;5.40;97.60;;;;;;6241429;23;20413;-60
2021/03/17 12:55:15;;;;;;;14.80;9.18;;;5.50;97.40;;;;;;6240273;23;20087;-75
2021/03/17 12:57:42;;;;;;;14.82;8.13;;;5.60;96.50;;;;;;6243789;23;20020;-65